AirNav   Pilot Hours Calculator
 
 907 users online  

1WI6 Aero Estates Airport
Raymond Township, Wisconsin, USA

GOING TO RAYMOND TOWNSHIP?


FAA INFORMATION EFFECTIVE 07 NOVEMBER 2019

Location

FAA Identifier: 1WI6
Lat/Long: 42-50-25.0590N 088-03-50.3100W
42-50.417650N 088-03.838500W
42.8402942,-88.0639750
(estimated)
Elevation: 825 ft. / 251 m (estimated)
Variation: 01W (1985)
From city: 3 miles NW of RAYMOND TOWNSHIP, WI
Time zone: UTC -6 (UTC -5 during Daylight Saving Time)
Zip code: 53126

Airport Operations

Airport use: Private use. Permission required prior to landing
Activation date: 05/1969
Control tower: no
ARTCC: CHICAGO CENTER
FSS: GREEN BAY FLIGHT SERVICE STATION
Attendance: SAT-SUN 0800-2000
Wind indicator: yes
Segmented circle: no

Airport Communications

WX ASOS at MKE (10 nm NE): PHONE 414-489-2168
WX ASOS at RAC (12 nm SE): 121.425 (262-635-0959)
WX AWOS-3PT at 57C (14 nm W): 118.125 (262-642-1845)
WX AWOS-3 at BUU (14 nm SW): 125.275 (262-757-0907)
WX AWOS-3 at UES (14 nm NW): 118.875 (262-521-5226)
WX ASOS at ENW (16 nm S): PHONE 262-652-7730
WX AWOS-3 at MWC (16 nm N): PHONE 414-461-2954

Nearby radio navigation aids

VOR radial/distance  VOR name  Freq  Var
BAEr148/19.2BADGER VOR/DME116.4002E
BJBr177/(35.0)WEST BEND VOR109.8001W
OBKr354/37.5NORTHBROOK VOR/DME113.0002W

 
NDB name  Hdg/Dist  Freq  Var  ID
LAKE LAWN072/24.840402WLVV .-.. ...- ...-
ROCK RIVER126/35.237101WRYV .-. -.-- ...-

Airport Services

Airframe service: MINOR
Powerplant service: MINOR

Runway Information

Runway E/W

Dimensions: 3000 x 115 ft. / 914 x 35 m
Surface: turf
RUNWAY E  RUNWAY W
Traffic pattern: leftleft
Displaced threshold: 500 ft.no
Obstructions: 30 ft. pline, 300 ft. from runway
84' WIND GENERATOR TOWER 200' N OF RWY 1000' FROM W END OF TWY.
30 ft. pline, 300 ft. from runway

Airport Ownership and Management from official FAA records

Ownership: Privately-owned
Owner: VINCENT CARRIVEAU
218 HWY 45
FRANKSVILLE, WI 53126
Phone 414-333-6283
Manager: VINCENT CARRIVEAU
216 HWY 45
FRANKSVILLE, WI 53126
Phone 414-333-6283

Airport Operational Statistics

Aircraft based on the field: 2
Single engine airplanes: 1
Helicopters: 1
    

Additional Remarks

FOR CD CTC CHICAGO ARTCC AT 630-906-8921.

Instrument Procedures

There are no published instrument procedures at 1WI6.

Some nearby airports with instrument procedures:

KMKE - General Mitchell International Airport (10 nm NE)
KRAC - Batten International Airport (12 nm SE)
57C - East Troy Municipal Airport (14 nm W)
KBUU - Burlington Municipal Airport (14 nm SW)
KUES - Waukesha County Airport (14 nm NW)
KENW - Kenosha Regional Airport (16 nm S)
KMWC - Lawrence J Timmerman Airport (16 nm N)
C02 - Grand Geneva Resort Airport (20 nm SW)
 
Loc | Ops | Rwys | IFR | FBO | Links
Com | Nav | Svcs | Stats | Notes

General Mitchell International Airport
 
Area around 1WI6 (Aero Estates Airport)
 
Road maps at: MapQuest Bing Google
 
Aerial photo
No photo
 
Sectional chart

 
Airport distance calculator
Flying to Aero Estates Airport? Find the distance to fly.

From to 1WI6

Sunrise and sunset
Times for 19-Nov-2019
 Local
(UTC-6)
 Zulu
(UTC)
Morning civil twilight06:2012:20
Sunrise06:5012:50
Sunset16:2522:25
Evening civil twilight16:5622:56

Current date and time
Zulu (UTC)  19-Nov-2019 12:54:52
Local (UTC-6)  19-Nov-2019 06:54:52
 
METAR
KMKE 
10nm NE 
191152Z 29004KT 10SM OVC014 02/M02 A2976 RMK AO2 SLP083 T00171022 10022 20017 53008
KUES 
11nm N 
191145Z 00000KT 10SM OVC009 M01/M02 A2976
KRAC 
12nm E 
191153Z AUTO 27003KT 10SM OVC013 01/M02 A2977 RMK AO2 SLP087 T00111022 10017 20011 53008
K57C 
14nm W 
191235Z AUTO 00000KT 7SM OVC007 00/00 A2975 RMK AO2 T00001005
KBUU 
14nm SW 
191235Z AUTO 00000KT 7SM OVC009 00/M01 A2976 RMK AO2 T10051007
KENW 
16nm S 
191153Z AUTO 00000KT 9SM OVC013 02/00 A2975 RMK AO2 SLP080 T00220000 10028 20022 50006
KMWC 
17nm N 
191235Z AUTO 00000KT 10SM OVC011 00/M02 A2977 RMK AO2
TAF
KMKE 
10nm NE 
191120Z 1912/2018 27005KT P6SM OVC014 FM191800 25004KT P6SM OVC017 FM200600 27004KT P6SM OVC009 FM201300 25003KT P6SM BKN007
KUES 
11nm N 
191120Z 1912/2012 00000KT P6SM OVC007 FM191600 00000KT P6SM OVC011 FM200300 24003KT P6SM OVC008 FM200600 26003KT 4SM BR OVC005 FM201100 25003KT 2SM BR OVC004
KENW 
16nm S 
191120Z 1912/2012 26004KT P6SM OVC011 FM191600 24003KT P6SM OVC013 FM200600 26004KT P6SM OVC009 FM200800 27004KT 4SM BR OVC006
NOTAMs
Click for the latest NOTAMs
NOTAMs are issued by the DoD/FAA and will open in a separate window not controlled by AirNav.

 

 
 

Would you like to see your business listed on this page?

 If your business provides an interesting product or service to pilots, flight crews, aircraft, or users of the Aero Estates Airport, you should consider listing it here.  To start the listing process, click on the button below
 
Add a business
 

Other Pages about Aero Estates Airport

Update a link
 
Copyright © AirNav, LLC. All rights reserved. Privacy Policy  Contact